sensor_id;sensor_type;location;lat;lon;timestamp;temperature;humidity
47168;DHT22;32931;47.778;17.806;2023-11-19T00:00:12;3.90;99.90
47168;DHT22;32931;47.778;17.806;2023-11-19T00:02:39;3.90;99.90
47168;DHT22;32931;47.778;17.806;2023-11-19T00:05:06;3.90;99.90
47168;DHT22;32931;47.778;17.806;2023-11-19T00:07:37;3.80;99.90
47168;DHT22;32931;47.778;17.806;2023-11-19T00:10:14;3.80;99.90
47168;DHT22;32931;47.778;17.806;2023-11-19T00:12:44;3.80;99.90
47168;DHT22;32931;47.778;17.806;2023-11-19T00:15:11;3.80;99.90
47168;DHT22;32931;47.778;17.806;2023-11-19T00:17:40;3.80;99.90
47168;DHT22;32931;47.778;17.806;2023-11-19T00:20:17;3.90;99.90
47168;DHT22;32931;47.778;17.806;2023-11-19T00:22:45;3.90;99.90
47168;DHT22;32931;47.778;17.806;2023-11-19T00:25:17;3.90;99.90
47168;DHT22;32931;47.778;17.806;2023-11-19T00:27:45;4.00;99.90
47168;DHT22;32931;47.778;17.806;2023-11-19T00:30:12;3.90;99.90
47168;DHT22;32931;47.778;17.806;2023-11-19T00:32:40;4.00;99.90
47168;DHT22;32931;47.778;17.806;2023-11-19T00:35:08;4.00;99.90
47168;DHT22;32931;47.778;17.806;2023-11-19T00:37:40;4.00;99.90
47168;DHT22;32931;47.778;17.806;2023-11-19T00:40:08;4.00;99.90
47168;DHT22;32931;47.778;17.806;2023-11-19T00:42:36;4.00;99.90
47168;DHT22;32931;47.778;17.806;2023-11-19T00:45:03;4.00;99.90
47168;DHT22;32931;47.778;17.806;2023-11-19T00:47:34;4.00;99.90
47168;DHT22;32931;47.778;17.806;2023-11-19T00:50:02;4.00;99.90
47168;DHT22;32931;47.778;17.806;2023-11-19T00:52:28;4.00;99.90
47168;DHT22;32931;47.778;17.806;2023-11-19T00:54:54;4.00;99.90
47168;DHT22;32931;47.778;17.806;2023-11-19T00:57:20;4.10;99.90
47168;DHT22;32931;47.778;17.806;2023-11-19T00:59:46;4.10;99.90
47168;DHT22;32931;47.778;17.806;2023-11-19T01:02:13;4.10;99.90
47168;DHT22;32931;47.778;17.806;2023-11-19T01:04:40;4.20;99.90
47168;DHT22;32931;47.778;17.806;2023-11-19T01:07:06;4.20;99.90
47168;DHT22;32931;47.778;17.806;2023-11-19T01:09:32;4.20;99.90
47168;DHT22;32931;47.778;17.806;2023-11-19T01:12:01;4.20;99.90
47168;DHT22;32931;47.778;17.806;2023-11-19T01:14:28;4.20;99.90
47168;DHT22;32931;47.778;17.806;2023-11-19T01:16:54;4.30;99.90
47168;DHT22;32931;47.778;17.806;2023-11-19T01:19:23;4.20;99.90
47168;DHT22;32931;47.778;17.806;2023-11-19T01:21:51;4.10;99.90
47168;DHT22;32931;47.778;17.806;2023-11-19T01:24:17;4.10;99.90
47168;DHT22;32931;47.778;17.806;2023-11-19T01:26:44;4.00;99.90
47168;DHT22;32931;47.778;17.806;2023-11-19T01:29:13;4.10;99.90
47168;DHT22;32931;47.778;17.806;2023-11-19T01:31:43;4.10;99.90
47168;DHT22;32931;47.778;17.806;2023-11-19T01:34:11;4.10;99.90
47168;DHT22;32931;47.778;17.806;2023-11-19T01:36:38;4.20;99.90
47168;DHT22;32931;47.778;17.806;2023-11-19T01:39:05;4.20;99.90
47168;DHT22;32931;47.778;17.806;2023-11-19T01:41:34;4.20;99.90
47168;DHT22;32931;47.778;17.806;2023-11-19T01:44:01;4.20;99.90
47168;DHT22;32931;47.778;17.806;2023-11-19T01:46:29;4.10;99.90
47168;DHT22;32931;47.778;17.806;2023-11-19T01:48:55;4.00;99.90
47168;DHT22;32931;47.778;17.806;2023-11-19T01:51:22;4.10;99.90
47168;DHT22;32931;47.778;17.806;2023-11-19T01:53:49;4.10;99.90
47168;DHT22;32931;47.778;17.806;2023-11-19T01:56:15;4.20;99.90
47168;DHT22;32931;47.778;17.806;2023-11-19T01:58:45;4.30;99.90
47168;DHT22;32931;47.778;17.806;2023-11-19T02:01:13;4.30;99.90
47168;DHT22;32931;47.778;17.806;2023-11-19T02:03:40;4.30;99.90
47168;DHT22;32931;47.778;17.806;2023-11-19T02:06:07;4.20;99.90
47168;DHT22;32931;47.778;17.806;2023-11-19T02:08:33;4.30;99.90
47168;DHT22;32931;47.778;17.806;2023-11-19T02:11:00;4.30;99.90
47168;DHT22;32931;47.778;17.806;2023-11-19T02:13:26;4.40;99.90
47168;DHT22;32931;47.778;17.806;2023-11-19T02:15:52;4.40;99.90
47168;DHT22;32931;47.778;17.806;2023-11-19T02:18:26;4.40;99.90
47168;DHT22;32931;47.778;17.806;2023-11-19T02:20:59;4.50;99.90
47168;DHT22;32931;47.778;17.806;2023-11-19T02:23:28;4.50;99.90
47168;DHT22;32931;47.778;17.806;2023-11-19T02:28:36;4.50;99.90
47168;DHT22;32931;47.778;17.806;2023-11-19T02:31:03;4.50;99.90
47168;DHT22;32931;47.778;17.806;2023-11-19T02:33:30;4.50;99.90
47168;DHT22;32931;47.778;17.806;2023-11-19T02:35:56;4.60;99.90
47168;DHT22;32931;47.778;17.806;2023-11-19T02:38:23;4.50;99.90
47168;DHT22;32931;47.778;17.806;2023-11-19T02:40:49;4.50;99.90
47168;DHT22;32931;47.778;17.806;2023-11-19T02:43:15;4.60;99.90
47168;DHT22;32931;47.778;17.806;2023-11-19T02:45:41;4.60;99.90
47168;DHT22;32931;47.778;17.806;2023-11-19T02:48:11;4.60;99.90
47168;DHT22;32931;47.778;17.806;2023-11-19T02:50:37;4.60;99.90
47168;DHT22;32931;47.778;17.806;2023-11-19T02:53:03;4.60;99.90
47168;DHT22;32931;47.778;17.806;2023-11-19T02:55:29;4.60;99.90
47168;DHT22;32931;47.778;17.806;2023-11-19T02:58:01;4.60;99.90
47168;DHT22;32931;47.778;17.806;2023-11-19T03:00:31;4.60;99.90
47168;DHT22;32931;47.778;17.806;2023-11-19T03:03:03;4.60;99.90
47168;DHT22;32931;47.778;17.806;2023-11-19T03:05:43;4.70;99.90
47168;DHT22;32931;47.778;17.806;2023-11-19T03:08:10;4.60;99.90
47168;DHT22;32931;47.778;17.806;2023-11-19T03:10:36;4.60;99.90
47168;DHT22;32931;47.778;17.806;2023-11-19T03:13:02;4.60;99.90
47168;DHT22;32931;47.778;17.806;2023-11-19T03:15:28;4.60;99.90
47168;DHT22;32931;47.778;17.806;2023-11-19T03:17:54;4.70;99.90
47168;DHT22;32931;47.778;17.806;2023-11-19T03:20:21;4.70;99.90
47168;DHT22;32931;47.778;17.806;2023-11-19T03:22:47;4.70;99.90
47168;DHT22;32931;47.778;17.806;2023-11-19T03:25:13;4.70;99.90
47168;DHT22;32931;47.778;17.806;2023-11-19T03:27:39;4.70;99.90
47168;DHT22;32931;47.778;17.806;2023-11-19T03:30:08;4.70;99.90
47168;DHT22;32931;47.778;17.806;2023-11-19T03:32:38;4.70;99.90
47168;DHT22;32931;47.778;17.806;2023-11-19T03:35:05;4.70;99.90
47168;DHT22;32931;47.778;17.806;2023-11-19T03:37:35;4.70;99.90
47168;DHT22;32931;47.778;17.806;2023-11-19T03:40:02;4.80;99.90
47168;DHT22;32931;47.778;17.806;2023-11-19T03:42:29;4.70;99.90
47168;DHT22;32931;47.778;17.806;2023-11-19T03:44:58;4.70;99.90
47168;DHT22;32931;47.778;17.806;2023-11-19T03:47:25;4.70;99.90
47168;DHT22;32931;47.778;17.806;2023-11-19T03:49:51;4.80;99.90
47168;DHT22;32931;47.778;17.806;2023-11-19T03:52:18;4.80;99.90
47168;DHT22;32931;47.778;17.806;2023-11-19T03:54:44;4.80;99.90
47168;DHT22;32931;47.778;17.806;2023-11-19T03:57:12;4.80;99.90
47168;DHT22;32931;47.778;17.806;2023-11-19T03:59:39;4.80;99.90
47168;DHT22;32931;47.778;17.806;2023-11-19T04:02:05;4.90;99.90
47168;DHT22;32931;47.778;17.806;2023-11-19T04:04:32;4.90;99.90
47168;DHT22;32931;47.778;17.806;2023-11-19T04:07:00;4.90;99.90
47168;DHT22;32931;47.778;17.806;2023-11-19T04:09:26;4.90;99.90
47168;DHT22;32931;47.778;17.806;2023-11-19T04:11:53;4.90;99.90
47168;DHT22;32931;47.778;17.806;2023-11-19T04:14:19;4.90;99.90
47168;DHT22;32931;47.778;17.806;2023-11-19T04:16:45;4.90;99.90
47168;DHT22;32931;47.778;17.806;2023-11-19T04:19:11;4.90;99.90
47168;DHT22;32931;47.778;17.806;2023-11-19T04:21:40;4.90;99.90
47168;DHT22;32931;47.778;17.806;2023-11-19T04:24:08;4.90;99.90
47168;DHT22;32931;47.778;17.806;2023-11-19T04:26:34;4.90;99.90
47168;DHT22;32931;47.778;17.806;2023-11-19T04:29:02;4.90;99.90
47168;DHT22;32931;47.778;17.806;2023-11-19T04:31:31;4.90;99.90
47168;DHT22;32931;47.778;17.806;2023-11-19T04:33:57;4.90;99.90
47168;DHT22;32931;47.778;17.806;2023-11-19T04:36:26;4.90;99.90
47168;DHT22;32931;47.778;17.806;2023-11-19T04:38:53;5.00;99.90
47168;DHT22;32931;47.778;17.806;2023-11-19T04:41:19;5.00;99.90
47168;DHT22;32931;47.778;17.806;2023-11-19T04:43:45;5.00;99.90
47168;DHT22;32931;47.778;17.806;2023-11-19T04:46:11;5.00;99.90
47168;DHT22;32931;47.778;17.806;2023-11-19T04:48:37;5.00;99.90
47168;DHT22;32931;47.778;17.806;2023-11-19T04:51:07;5.00;99.90
47168;DHT22;32931;47.778;17.806;2023-11-19T04:53:35;5.00;99.90
47168;DHT22;32931;47.778;17.806;2023-11-19T04:56:12;5.00;99.90
47168;DHT22;32931;47.778;17.806;2023-11-19T04:58:39;5.00;99.90
47168;DHT22;32931;47.778;17.806;2023-11-19T05:01:06;5.00;99.90
47168;DHT22;32931;47.778;17.806;2023-11-19T05:03:39;5.00;99.90
47168;DHT22;32931;47.778;17.806;2023-11-19T05:06:06;5.00;99.90
47168;DHT22;32931;47.778;17.806;2023-11-19T05:08:32;5.00;99.90
47168;DHT22;32931;47.778;17.806;2023-11-19T05:10:58;5.10;99.90
47168;DHT22;32931;47.778;17.806;2023-11-19T05:13:25;5.00;99.90
47168;DHT22;32931;47.778;17.806;2023-11-19T05:15:51;5.10;99.90
47168;DHT22;32931;47.778;17.806;2023-11-19T05:18:17;5.10;99.90
47168;DHT22;32931;47.778;17.806;2023-11-19T05:20:45;5.10;99.90
47168;DHT22;32931;47.778;17.806;2023-11-19T05:23:11;5.10;99.90
47168;DHT22;32931;47.778;17.806;2023-11-19T05:25:37;5.10;99.90
47168;DHT22;32931;47.778;17.806;2023-11-19T05:28:04;5.10;99.90
47168;DHT22;32931;47.778;17.806;2023-11-19T05:30:30;5.10;99.90
47168;DHT22;32931;47.778;17.806;2023-11-19T05:32:56;5.20;99.90
47168;DHT22;32931;47.778;17.806;2023-11-19T05:35:22;5.10;99.90
47168;DHT22;32931;47.778;17.806;2023-11-19T05:37:48;5.20;99.90
47168;DHT22;32931;47.778;17.806;2023-11-19T05:40:15;5.20;99.90
47168;DHT22;32931;47.778;17.806;2023-11-19T05:42:43;5.20;99.90
47168;DHT22;32931;47.778;17.806;2023-11-19T05:45:11;5.20;99.90
47168;DHT22;32931;47.778;17.806;2023-11-19T05:47:38;5.20;99.90
47168;DHT22;32931;47.778;17.806;2023-11-19T05:50:04;5.20;99.90
47168;DHT22;32931;47.778;17.806;2023-11-19T05:52:32;5.20;99.90
47168;DHT22;32931;47.778;17.806;2023-11-19T05:55:00;5.20;99.90
47168;DHT22;32931;47.778;17.806;2023-11-19T05:57:30;5.30;99.90
47168;DHT22;32931;47.778;17.806;2023-11-19T05:59:56;5.30;99.90
47168;DHT22;32931;47.778;17.806;2023-11-19T06:02:22;5.20;99.90
47168;DHT22;32931;47.778;17.806;2023-11-19T06:04:48;5.30;99.90
47168;DHT22;32931;47.778;17.806;2023-11-19T06:07:15;5.30;99.90
47168;DHT22;32931;47.778;17.806;2023-11-19T06:09:41;5.30;99.90
47168;DHT22;32931;47.778;17.806;2023-11-19T06:12:08;5.30;99.90
47168;DHT22;32931;47.778;17.806;2023-11-19T06:14:34;5.30;99.90
47168;DHT22;32931;47.778;17.806;2023-11-19T06:17:00;5.30;99.90
47168;DHT22;32931;47.778;17.806;2023-11-19T06:19:26;5.30;99.90
47168;DHT22;32931;47.778;17.806;2023-11-19T06:21:52;5.30;99.90
47168;DHT22;32931;47.778;17.806;2023-11-19T06:24:18;5.30;99.90
47168;DHT22;32931;47.778;17.806;2023-11-19T06:26:45;5.30;99.90
47168;DHT22;32931;47.778;17.806;2023-11-19T06:29:11;5.30;99.90
47168;DHT22;32931;47.778;17.806;2023-11-19T06:31:40;5.40;99.90
47168;DHT22;32931;47.778;17.806;2023-11-19T06:34:07;5.40;99.90
47168;DHT22;32931;47.778;17.806;2023-11-19T06:36:33;5.40;99.90
47168;DHT22;32931;47.778;17.806;2023-11-19T06:38:59;5.40;99.90
47168;DHT22;32931;47.778;17.806;2023-11-19T06:41:26;5.40;99.90
47168;DHT22;32931;47.778;17.806;2023-11-19T06:43:53;5.40;99.90
47168;DHT22;32931;47.778;17.806;2023-11-19T06:46:19;5.40;99.90
47168;DHT22;32931;47.778;17.806;2023-11-19T06:48:45;5.40;99.90
47168;DHT22;32931;47.778;17.806;2023-11-19T06:51:12;5.40;99.90
47168;DHT22;32931;47.778;17.806;2023-11-19T06:53:38;5.40;99.90
47168;DHT22;32931;47.778;17.806;2023-11-19T06:58:46;5.40;99.90
47168;DHT22;32931;47.778;17.806;2023-11-19T07:01:14;5.40;99.90
47168;DHT22;32931;47.778;17.806;2023-11-19T07:03:41;5.40;99.90
47168;DHT22;32931;47.778;17.806;2023-11-19T07:06:07;5.40;99.90
47168;DHT22;32931;47.778;17.806;2023-11-19T07:08:34;5.40;99.90
47168;DHT22;32931;47.778;17.806;2023-11-19T07:11:00;5.40;99.90
47168;DHT22;32931;47.778;17.806;2023-11-19T07:13:26;5.50;99.90
47168;DHT22;32931;47.778;17.806;2023-11-19T07:15:55;5.50;99.90
47168;DHT22;32931;47.778;17.806;2023-11-19T07:18:22;5.50;99.90
47168;DHT22;32931;47.778;17.806;2023-11-19T07:20:49;5.50;99.90
47168;DHT22;32931;47.778;17.806;2023-11-19T07:23:15;5.50;99.90
47168;DHT22;32931;47.778;17.806;2023-11-19T07:25:43;5.50;99.90
47168;DHT22;32931;47.778;17.806;2023-11-19T07:28:13;5.50;99.90
47168;DHT22;32931;47.778;17.806;2023-11-19T07:30:39;5.50;99.90
47168;DHT22;32931;47.778;17.806;2023-11-19T07:33:05;5.60;99.90
47168;DHT22;32931;47.778;17.806;2023-11-19T07:35:32;5.60;99.90
47168;DHT22;32931;47.778;17.806;2023-11-19T07:37:58;5.60;99.90
47168;DHT22;32931;47.778;17.806;2023-11-19T07:40:24;5.60;99.90
47168;DHT22;32931;47.778;17.806;2023-11-19T07:42:50;5.60;99.90
47168;DHT22;32931;47.778;17.806;2023-11-19T07:45:17;5.70;99.90
47168;DHT22;32931;47.778;17.806;2023-11-19T07:47:43;5.70;99.90
47168;DHT22;32931;47.778;17.806;2023-11-19T07:50:12;5.70;99.90
47168;DHT22;32931;47.778;17.806;2023-11-19T07:52:42;5.70;99.90
47168;DHT22;32931;47.778;17.806;2023-11-19T07:55:08;5.70;99.90
47168;DHT22;32931;47.778;17.806;2023-11-19T07:57:34;5.80;99.90
47168;DHT22;32931;47.778;17.806;2023-11-19T08:00:01;5.80;99.90
47168;DHT22;32931;47.778;17.806;2023-11-19T08:02:27;5.80;99.90
47168;DHT22;32931;47.778;17.806;2023-11-19T08:04:54;5.80;99.90
47168;DHT22;32931;47.778;17.806;2023-11-19T08:07:21;5.90;99.90
47168;DHT22;32931;47.778;17.806;2023-11-19T08:09:48;5.90;99.90
47168;DHT22;32931;47.778;17.806;2023-11-19T08:12:14;5.90;99.90
47168;DHT22;32931;47.778;17.806;2023-11-19T08:14:44;6.00;99.90
47168;DHT22;32931;47.778;17.806;2023-11-19T08:17:12;6.00;99.90
47168;DHT22;32931;47.778;17.806;2023-11-19T08:19:38;6.00;99.90
47168;DHT22;32931;47.778;17.806;2023-11-19T08:22:04;6.10;99.90
47168;DHT22;32931;47.778;17.806;2023-11-19T08:24:32;6.10;99.90
47168;DHT22;32931;47.778;17.806;2023-11-19T08:26:59;6.10;99.90
47168;DHT22;32931;47.778;17.806;2023-11-19T08:29:25;6.10;99.90
47168;DHT22;32931;47.778;17.806;2023-11-19T08:31:51;6.20;99.90
47168;DHT22;32931;47.778;17.806;2023-11-19T08:34:17;6.20;99.90
47168;DHT22;32931;47.778;17.806;2023-11-19T08:36:43;6.30;99.90
47168;DHT22;32931;47.778;17.806;2023-11-19T08:39:09;6.30;99.90
47168;DHT22;32931;47.778;17.806;2023-11-19T08:41:36;6.40;99.90
47168;DHT22;32931;47.778;17.806;2023-11-19T08:44:04;6.40;99.90
47168;DHT22;32931;47.778;17.806;2023-11-19T08:46:30;6.40;99.90
47168;DHT22;32931;47.778;17.806;2023-11-19T08:48:56;6.50;99.90
47168;DHT22;32931;47.778;17.806;2023-11-19T08:51:24;6.50;99.90
47168;DHT22;32931;47.778;17.806;2023-11-19T08:53:50;6.50;99.90
47168;DHT22;32931;47.778;17.806;2023-11-19T08:56:17;6.50;99.90
47168;DHT22;32931;47.778;17.806;2023-11-19T08:58:43;6.50;99.90
47168;DHT22;32931;47.778;17.806;2023-11-19T09:01:09;6.50;99.90
47168;DHT22;32931;47.778;17.806;2023-11-19T09:03:35;6.50;99.90
47168;DHT22;32931;47.778;17.806;2023-11-19T09:06:02;6.50;99.90
47168;DHT22;32931;47.778;17.806;2023-11-19T09:08:29;6.40;99.90
47168;DHT22;32931;47.778;17.806;2023-11-19T09:10:55;6.50;99.90
47168;DHT22;32931;47.778;17.806;2023-11-19T09:13:21;6.50;99.90
47168;DHT22;32931;47.778;17.806;2023-11-19T09:15:47;6.50;99.90
47168;DHT22;32931;47.778;17.806;2023-11-19T09:18:13;6.50;99.90
47168;DHT22;32931;47.778;17.806;2023-11-19T09:20:40;6.60;99.90
47168;DHT22;32931;47.778;17.806;2023-11-19T09:23:06;6.60;99.90
47168;DHT22;32931;47.778;17.806;2023-11-19T09:25:33;6.70;99.90
47168;DHT22;32931;47.778;17.806;2023-11-19T09:27:59;6.70;99.90
47168;DHT22;32931;47.778;17.806;2023-11-19T09:30:26;6.70;99.90
47168;DHT22;32931;47.778;17.806;2023-11-19T09:32:52;6.70;99.90
47168;DHT22;32931;47.778;17.806;2023-11-19T09:35:18;6.80;99.90
47168;DHT22;32931;47.778;17.806;2023-11-19T09:37:44;6.80;99.90
47168;DHT22;32931;47.778;17.806;2023-11-19T09:40:10;6.80;99.90
47168;DHT22;32931;47.778;17.806;2023-11-19T09:42:43;6.80;99.90
47168;DHT22;32931;47.778;17.806;2023-11-19T09:45:14;6.90;99.90
47168;DHT22;32931;47.778;17.806;2023-11-19T09:47:45;6.90;99.90
47168;DHT22;32931;47.778;17.806;2023-11-19T09:50:19;7.00;99.90
47168;DHT22;32931;47.778;17.806;2023-11-19T09:52:46;7.00;99.90
47168;DHT22;32931;47.778;17.806;2023-11-19T09:55:12;7.00;99.90
47168;DHT22;32931;47.778;17.806;2023-11-19T09:57:39;7.00;99.90
47168;DHT22;32931;47.778;17.806;2023-11-19T10:00:10;7.10;99.90
47168;DHT22;32931;47.778;17.806;2023-11-19T10:02:37;7.10;99.90
47168;DHT22;32931;47.778;17.806;2023-11-19T10:05:06;7.10;99.90
47168;DHT22;32931;47.778;17.806;2023-11-19T10:07:33;7.20;99.90
47168;DHT22;32931;47.778;17.806;2023-11-19T10:10:00;7.30;99.90
47168;DHT22;32931;47.778;17.806;2023-11-19T10:12:28;7.30;99.90
47168;DHT22;32931;47.778;17.806;2023-11-19T10:14:56;7.30;99.90
47168;DHT22;32931;47.778;17.806;2023-11-19T10:17:32;7.40;99.90
47168;DHT22;32931;47.778;17.806;2023-11-19T10:19:59;7.50;99.90
47168;DHT22;32931;47.778;17.806;2023-11-19T10:22:25;7.50;99.90
47168;DHT22;32931;47.778;17.806;2023-11-19T10:24:53;7.50;99.90
47168;DHT22;32931;47.778;17.806;2023-11-19T10:27:19;7.50;99.90
47168;DHT22;32931;47.778;17.806;2023-11-19T10:29:48;7.60;99.90
47168;DHT22;32931;47.778;17.806;2023-11-19T10:32:14;7.60;99.90
47168;DHT22;32931;47.778;17.806;2023-11-19T10:34:40;7.60;99.90
47168;DHT22;32931;47.778;17.806;2023-11-19T10:37:07;7.60;99.90
47168;DHT22;32931;47.778;17.806;2023-11-19T10:39:52;7.70;99.90
47168;DHT22;32931;47.778;17.806;2023-11-19T10:42:20;7.70;99.90
47168;DHT22;32931;47.778;17.806;2023-11-19T10:44:47;7.70;99.90
47168;DHT22;32931;47.778;17.806;2023-11-19T10:47:19;7.80;99.90
47168;DHT22;32931;47.778;17.806;2023-11-19T10:49:46;7.80;99.90
47168;DHT22;32931;47.778;17.806;2023-11-19T10:52:19;7.80;99.90
47168;DHT22;32931;47.778;17.806;2023-11-19T10:54:49;7.80;99.90
47168;DHT22;32931;47.778;17.806;2023-11-19T10:57:20;7.90;99.90
47168;DHT22;32931;47.778;17.806;2023-11-19T10:59:47;7.90;99.90
47168;DHT22;32931;47.778;17.806;2023-11-19T11:02:19;7.90;99.90
47168;DHT22;32931;47.778;17.806;2023-11-19T11:04:47;8.00;99.90
47168;DHT22;32931;47.778;17.806;2023-11-19T11:07:15;8.00;99.90
47168;DHT22;32931;47.778;17.806;2023-11-19T11:09:44;8.10;99.90
47168;DHT22;32931;47.778;17.806;2023-11-19T11:12:12;8.20;99.90
47168;DHT22;32931;47.778;17.806;2023-11-19T11:14:40;8.20;99.90
47168;DHT22;32931;47.778;17.806;2023-11-19T11:17:09;8.30;99.90
47168;DHT22;32931;47.778;17.806;2023-11-19T11:19:37;8.30;99.90
47168;DHT22;32931;47.778;17.806;2023-11-19T11:22:04;8.30;99.90
47168;DHT22;32931;47.778;17.806;2023-11-19T11:33:24;8.30;99.90
47168;DHT22;32931;47.778;17.806;2023-11-19T11:36:35;8.30;99.90
47168;DHT22;32931;47.778;17.806;2023-11-19T11:38:53;8.30;99.90
47168;DHT22;32931;47.778;17.806;2023-11-19T11:41:24;8.30;99.90
47168;DHT22;32931;47.778;17.806;2023-11-19T11:43:52;8.30;99.90
47168;DHT22;32931;47.778;17.806;2023-11-19T11:49:07;8.30;99.90
47168;DHT22;32931;47.778;17.806;2023-11-19T12:02:18;8.40;99.90
47168;DHT22;32931;47.778;17.806;2023-11-19T12:04:49;8.50;99.90
47168;DHT22;32931;47.778;17.806;2023-11-19T12:07:21;8.50;99.90
47168;DHT22;32931;47.778;17.806;2023-11-19T12:10:08;8.50;99.90
47168;DHT22;32931;47.778;17.806;2023-11-19T12:12:35;8.60;99.90
47168;DHT22;32931;47.778;17.806;2023-11-19T12:15:06;8.60;99.90
47168;DHT22;32931;47.778;17.806;2023-11-19T12:20:08;8.60;99.90
47168;DHT22;32931;47.778;17.806;2023-11-19T12:22:44;8.70;99.90
47168;DHT22;32931;47.778;17.806;2023-11-19T12:25:12;8.70;99.90
47168;DHT22;32931;47.778;17.806;2023-11-19T12:27:43;8.70;99.90
47168;DHT22;32931;47.778;17.806;2023-11-19T12:30:09;8.70;99.90
47168;DHT22;32931;47.778;17.806;2023-11-19T12:32:42;8.80;99.90
47168;DHT22;32931;47.778;17.806;2023-11-19T12:35:09;8.80;99.90
47168;DHT22;32931;47.778;17.806;2023-11-19T12:37:45;8.80;99.90
47168;DHT22;32931;47.778;17.806;2023-11-19T12:42:41;8.80;99.90
47168;DHT22;32931;47.778;17.806;2023-11-19T12:45:07;8.80;99.90
47168;DHT22;32931;47.778;17.806;2023-11-19T12:47:38;8.80;99.90
47168;DHT22;32931;47.778;17.806;2023-11-19T12:50:04;8.80;99.90
47168;DHT22;32931;47.778;17.806;2023-11-19T12:52:30;8.80;99.90
47168;DHT22;32931;47.778;17.806;2023-11-19T12:54:56;8.80;99.90
47168;DHT22;32931;47.778;17.806;2023-11-19T12:57:42;8.80;99.90
47168;DHT22;32931;47.778;17.806;2023-11-19T13:00:19;8.80;99.90
47168;DHT22;32931;47.778;17.806;2023-11-19T13:07:49;8.70;99.90
47168;DHT22;32931;47.778;17.806;2023-11-19T13:10:15;8.70;99.90
47168;DHT22;32931;47.778;17.806;2023-11-19T13:12:41;8.60;99.90
47168;DHT22;32931;47.778;17.806;2023-11-19T13:15:23;8.60;99.90
47168;DHT22;32931;47.778;17.806;2023-11-19T13:17:50;8.50;99.90
47168;DHT22;32931;47.778;17.806;2023-11-19T13:20:16;8.50;99.90
47168;DHT22;32931;47.778;17.806;2023-11-19T13:22:57;8.50;99.90
47168;DHT22;32931;47.778;17.806;2023-11-19T13:25:23;8.50;99.90
47168;DHT22;32931;47.778;17.806;2023-11-19T13:27:49;8.50;99.90
47168;DHT22;32931;47.778;17.806;2023-11-19T13:30:16;8.50;99.90
47168;DHT22;32931;47.778;17.806;2023-11-19T13:32:42;8.50;99.90
47168;DHT22;32931;47.778;17.806;2023-11-19T13:35:10;8.50;99.90
47168;DHT22;32931;47.778;17.806;2023-11-19T13:37:36;8.40;99.90
47168;DHT22;32931;47.778;17.806;2023-11-19T13:40:02;8.40;99.90
47168;DHT22;32931;47.778;17.806;2023-11-19T13:42:29;8.40;99.90
47168;DHT22;32931;47.778;17.806;2023-11-19T13:44:55;8.50;99.90
47168;DHT22;32931;47.778;17.806;2023-11-19T13:47:22;8.40;99.90
47168;DHT22;32931;47.778;17.806;2023-11-19T13:49:50;8.40;99.90
47168;DHT22;32931;47.778;17.806;2023-11-19T13:52:16;8.50;99.90
47168;DHT22;32931;47.778;17.806;2023-11-19T13:54:42;8.50;99.90
47168;DHT22;32931;47.778;17.806;2023-11-19T13:57:08;8.40;99.90
47168;DHT22;32931;47.778;17.806;2023-11-19T13:59:40;8.50;99.90
47168;DHT22;32931;47.778;17.806;2023-11-19T14:02:07;8.50;99.90
47168;DHT22;32931;47.778;17.806;2023-11-19T14:04:33;8.40;99.90
47168;DHT22;32931;47.778;17.806;2023-11-19T14:06:59;8.40;99.90
47168;DHT22;32931;47.778;17.806;2023-11-19T14:09:25;8.50;99.90
47168;DHT22;32931;47.778;17.806;2023-11-19T14:11:52;8.50;99.90
47168;DHT22;32931;47.778;17.806;2023-11-19T14:14:18;8.50;99.90
47168;DHT22;32931;47.778;17.806;2023-11-19T14:16:44;8.50;99.90
47168;DHT22;32931;47.778;17.806;2023-11-19T14:19:10;8.50;99.90
47168;DHT22;32931;47.778;17.806;2023-11-19T14:21:36;8.50;99.90
47168;DHT22;32931;47.778;17.806;2023-11-19T14:24:03;8.50;99.90
47168;DHT22;32931;47.778;17.806;2023-11-19T14:26:29;8.50;99.90
47168;DHT22;32931;47.778;17.806;2023-11-19T14:28:55;8.50;99.90
47168;DHT22;32931;47.778;17.806;2023-11-19T14:31:21;8.50;99.90
47168;DHT22;32931;47.778;17.806;2023-11-19T14:33:47;8.50;99.90
47168;DHT22;32931;47.778;17.806;2023-11-19T14:36:14;8.50;99.90
47168;DHT22;32931;47.778;17.806;2023-11-19T14:38:40;8.50;99.90
47168;DHT22;32931;47.778;17.806;2023-11-19T14:41:06;8.50;99.90
47168;DHT22;32931;47.778;17.806;2023-11-19T14:43:33;8.50;99.90
47168;DHT22;32931;47.778;17.806;2023-11-19T14:46:00;8.40;99.90
47168;DHT22;32931;47.778;17.806;2023-11-19T14:48:29;8.40;99.90
47168;DHT22;32931;47.778;17.806;2023-11-19T14:50:55;8.40;99.90
47168;DHT22;32931;47.778;17.806;2023-11-19T14:53:21;8.40;99.90
47168;DHT22;32931;47.778;17.806;2023-11-19T14:55:48;8.40;99.90
47168;DHT22;32931;47.778;17.806;2023-11-19T14:58:14;8.40;99.90
47168;DHT22;32931;47.778;17.806;2023-11-19T15:00:40;8.40;99.90
47168;DHT22;32931;47.778;17.806;2023-11-19T15:03:06;8.40;99.90
47168;DHT22;32931;47.778;17.806;2023-11-19T15:05:34;8.40;99.90
47168;DHT22;32931;47.778;17.806;2023-11-19T15:08:00;8.40;99.90
47168;DHT22;32931;47.778;17.806;2023-11-19T15:10:27;8.30;99.90
47168;DHT22;32931;47.778;17.806;2023-11-19T15:12:53;8.30;99.90
47168;DHT22;32931;47.778;17.806;2023-11-19T15:15:20;8.40;99.90
47168;DHT22;32931;47.778;17.806;2023-11-19T15:17:46;8.30;99.90
47168;DHT22;32931;47.778;17.806;2023-11-19T15:20:13;8.30;99.90
47168;DHT22;32931;47.778;17.806;2023-11-19T15:22:41;8.30;99.90
47168;DHT22;32931;47.778;17.806;2023-11-19T15:25:08;8.30;99.90
47168;DHT22;32931;47.778;17.806;2023-11-19T15:27:36;8.30;99.90
47168;DHT22;32931;47.778;17.806;2023-11-19T15:30:02;8.30;99.90
47168;DHT22;32931;47.778;17.806;2023-11-19T15:32:29;8.30;99.90
47168;DHT22;32931;47.778;17.806;2023-11-19T15:34:58;8.30;99.90
47168;DHT22;32931;47.778;17.806;2023-11-19T15:37:24;8.30;99.90
47168;DHT22;32931;47.778;17.806;2023-11-19T15:39:50;8.30;99.90
47168;DHT22;32931;47.778;17.806;2023-11-19T15:42:17;8.30;99.90
47168;DHT22;32931;47.778;17.806;2023-11-19T15:44:43;8.20;99.90
47168;DHT22;32931;47.778;17.806;2023-11-19T15:47:09;8.20;99.90
47168;DHT22;32931;47.778;17.806;2023-11-19T15:49:36;8.20;99.90
47168;DHT22;32931;47.778;17.806;2023-11-19T15:52:03;8.10;99.90
47168;DHT22;32931;47.778;17.806;2023-11-19T15:54:31;8.20;99.90
47168;DHT22;32931;47.778;17.806;2023-11-19T15:56:57;8.20;99.90
47168;DHT22;32931;47.778;17.806;2023-11-19T15:59:23;8.10;99.90
47168;DHT22;32931;47.778;17.806;2023-11-19T16:01:49;8.10;99.90
47168;DHT22;32931;47.778;17.806;2023-11-19T16:04:15;8.10;99.90
47168;DHT22;32931;47.778;17.806;2023-11-19T16:06:41;8.10;99.90
47168;DHT22;32931;47.778;17.806;2023-11-19T16:09:09;8.10;99.90